createdAt,value
2018-11-05T00:00:55.337Z,3.43
2018-11-05T00:03:24.132Z,3.30
2018-11-05T00:05:52.866Z,5.10
2018-11-05T00:08:21.818Z,5.77
2018-11-05T00:10:50.637Z,4.17
2018-11-05T00:13:19.425Z,5.00
2018-11-05T00:15:48.212Z,4.53
2018-11-05T00:18:16.984Z,5.90
2018-11-05T00:20:45.910Z,6.13
2018-11-05T00:23:14.859Z,5.17
2018-11-05T00:25:43.647Z,5.13
2018-11-05T00:28:12.461Z,6.60
2018-11-05T00:30:41.158Z,7.10
2018-11-05T00:33:09.798Z,4.63
2018-11-05T00:35:38.736Z,4.77
2018-11-05T00:38:07.726Z,7.20
2018-11-05T00:40:36.583Z,7.40
2018-11-05T00:43:05.968Z,3.70
2018-11-05T00:45:35.096Z,5.07
2018-11-05T00:48:03.952Z,5.40
2018-11-05T00:50:32.683Z,7.07
2018-11-05T00:53:01.528Z,7.50
2018-11-05T00:55:30.336Z,6.03
2018-11-05T00:57:59.385Z,9.10
2018-11-05T01:00:28.203Z,3.23
2018-11-05T01:02:57.340Z,5.17
2018-11-05T01:05:26.248Z,5.80
2018-11-05T01:07:55.172Z,5.33
2018-11-05T01:10:24.065Z,4.10
2018-11-05T01:12:52.906Z,6.97
2018-11-05T01:15:21.798Z,5.83
2018-11-05T01:17:50.544Z,6.60
2018-11-05T01:20:19.542Z,5.17
2018-11-05T01:22:48.225Z,6.17
2018-11-05T01:25:17.460Z,7.13
2018-11-05T01:27:46.304Z,6.17
2018-11-05T01:30:15.176Z,6.97
2018-11-05T01:33:17.656Z,10.13
2018-11-05T01:35:46.735Z,8.57
2018-11-05T01:38:15.745Z,3.20
2018-11-05T01:40:44.563Z,6.80
2018-11-05T01:43:13.262Z,7.50
2018-11-05T01:45:42.341Z,7.83
2018-11-05T01:48:11.022Z,5.40
2018-11-05T01:50:40.157Z,5.43
2018-11-05T01:53:09.084Z,10.87
2018-11-05T01:55:38.042Z,6.67
2018-11-05T01:58:07.509Z,7.20
2018-11-05T02:00:36.371Z,7.03
2018-11-05T02:03:05.539Z,8.53
2018-11-05T02:05:34.473Z,6.50
2018-11-05T02:08:03.301Z,12.80
2018-11-05T02:10:32.324Z,8.47
2018-11-05T02:13:07.846Z,5.40
2018-11-05T02:15:36.737Z,10.97
2018-11-05T02:18:05.617Z,8.87
2018-11-05T02:20:34.327Z,8.87
2018-11-05T02:23:03.209Z,7.53
2018-11-05T02:25:32.127Z,9.97
2018-11-05T02:28:00.868Z,6.43
2018-11-05T02:30:29.744Z,11.00
2018-11-05T02:32:58.667Z,8.97
2018-11-05T02:35:27.485Z,9.13
2018-11-05T02:37:56.524Z,10.43
2018-11-05T02:40:25.403Z,7.77
2018-11-05T02:42:54.484Z,4.53
2018-11-05T02:45:23.285Z,7.70
2018-11-05T02:47:52.504Z,5.63
2018-11-05T02:50:21.585Z,6.57
2018-11-05T02:52:50.395Z,4.90
2018-11-05T02:55:19.164Z,5.33
2018-11-05T02:57:47.965Z,4.87
2018-11-05T03:00:18.043Z,10.43
2018-11-05T03:02:47.104Z,5.80
2018-11-05T03:05:17.879Z,7.17
2018-11-05T03:07:47.481Z,8.67
2018-11-05T03:10:16.588Z,5.70
2018-11-05T03:12:46.348Z,9.37
2018-11-05T03:15:16.166Z,3.93
2018-11-05T03:17:45.110Z,10.13
2018-11-05T03:20:14.664Z,8.27
2018-11-05T03:22:43.833Z,6.00
2018-11-05T03:25:12.581Z,5.93
2018-11-05T03:27:41.742Z,8.87
2018-11-05T03:30:13.893Z,4.77
2018-11-05T03:32:42.770Z,4.63
2018-11-05T03:35:12.305Z,5.93
2018-11-05T03:37:41.909Z,5.70
2018-11-05T03:40:58.431Z,9.13
2018-11-05T03:43:44.722Z,5.67
2018-11-05T03:46:13.633Z,5.33
2018-11-05T03:48:42.523Z,4.43
2018-11-05T03:51:11.282Z,6.63
2018-11-05T03:53:40.027Z,7.90
2018-11-05T03:56:08.904Z,5.83
2018-11-05T03:58:37.761Z,5.60
2018-11-05T04:01:06.635Z,5.27
2018-11-05T04:03:35.363Z,7.90
2018-11-05T04:06:04.344Z,10.97
2018-11-05T04:08:33.161Z,4.37
2018-11-05T04:11:01.917Z,10.20
2018-11-05T04:13:30.829Z,5.87
2018-11-05T04:15:59.765Z,6.93
2018-11-05T04:18:28.443Z,7.53
2018-11-05T04:20:57.229Z,6.53
2018-11-05T04:23:25.833Z,6.97
2018-11-05T04:25:54.625Z,7.07
2018-11-05T04:28:23.632Z,3.67
2018-11-05T04:30:52.366Z,6.97
2018-11-05T04:33:21.339Z,4.43
2018-11-05T04:35:50.136Z,5.43
2018-11-05T04:38:18.818Z,5.27
2018-11-05T04:40:47.669Z,6.63
2018-11-05T04:43:16.444Z,6.50
2018-11-05T04:45:45.231Z,4.87
2018-11-05T04:48:13.978Z,4.97
2018-11-05T04:50:42.712Z,11.50
2018-11-05T04:53:11.548Z,6.50
2018-11-05T04:55:40.284Z,3.77
2018-11-05T04:58:09.291Z,5.60
2018-11-05T05:00:38.109Z,6.30
2018-11-05T05:03:06.985Z,9.30
2018-11-05T05:05:35.759Z,8.73
2018-11-05T05:08:04.768Z,9.07
2018-11-05T05:10:33.507Z,9.67
2018-11-05T05:13:02.378Z,6.00
2018-11-05T05:15:31.202Z,6.27
2018-11-05T05:17:59.990Z,5.33
2018-11-05T05:20:28.857Z,7.70
2018-11-05T05:22:57.845Z,9.10
2018-11-05T05:25:26.362Z,5.53
2018-11-05T05:27:55.204Z,7.97
2018-11-05T05:30:23.991Z,5.00
2018-11-05T05:32:52.728Z,7.30
2018-11-05T05:35:21.521Z,5.50
2018-11-05T05:37:50.204Z,6.27
2018-11-05T05:40:18.984Z,7.20
2018-11-05T05:42:47.651Z,8.00
2018-11-05T05:45:18.519Z,3.97
2018-11-05T05:47:47.224Z,7.87
2018-11-05T05:50:17.069Z,7.70
2018-11-05T05:52:47.947Z,4.90
2018-11-05T05:55:16.550Z,4.60
2018-11-05T05:57:45.476Z,8.23
2018-11-05T06:00:16.224Z,6.00
2018-11-05T06:02:45.076Z,5.13
2018-11-05T06:05:14.533Z,9.67
2018-11-05T06:07:43.732Z,5.03
2018-11-05T06:10:13.492Z,4.30
2018-11-05T06:12:42.338Z,3.27
2018-11-05T06:15:12.810Z,5.23
2018-11-05T06:17:41.552Z,4.97
2018-11-05T06:20:12.908Z,3.77
2018-11-05T06:22:42.074Z,3.57
2018-11-05T06:25:10.776Z,7.13
2018-11-05T06:27:39.672Z,4.07
2018-11-05T06:30:12.893Z,6.80
2018-11-05T06:32:41.829Z,2.90
2018-11-05T06:35:11.403Z,8.27
2018-11-05T06:37:40.683Z,4.40
2018-11-05T06:40:11.439Z,6.83
2018-11-05T06:42:40.440Z,4.57
2018-11-05T06:45:11.852Z,6.10
2018-11-05T06:47:41.754Z,8.43
2018-11-05T06:50:12.864Z,8.63
2018-11-05T06:52:42.179Z,5.40
2018-11-05T06:55:11.671Z,5.40
2018-11-05T06:57:40.722Z,6.30
2018-11-05T07:00:19.618Z,6.10
2018-11-05T07:02:48.402Z,8.90
2018-11-05T07:05:17.200Z,9.53
2018-11-05T07:07:47.119Z,7.73
2018-11-05T07:10:16.458Z,6.27
2018-11-05T07:12:45.381Z,8.30
2018-11-05T07:15:15.149Z,8.10
2018-11-05T07:17:44.816Z,8.07
2018-11-05T07:20:15.141Z,10.37
2018-11-05T07:22:44.135Z,7.40
2018-11-05T07:25:13.625Z,8.17
2018-11-05T07:27:42.647Z,8.00
2018-11-05T07:30:14.177Z,6.33
2018-11-05T07:32:42.883Z,8.10
2018-11-05T07:35:12.576Z,11.07
2018-11-05T07:37:41.681Z,8.47
2018-11-05T07:40:11.832Z,6.60
2018-11-05T07:42:40.752Z,7.33
2018-11-05T07:45:12.731Z,9.03
2018-11-05T07:47:42.079Z,5.17
2018-11-05T07:50:12.150Z,6.57
2018-11-05T07:52:40.827Z,6.93
2018-11-05T07:55:11.985Z,5.37
2018-11-05T07:57:41.899Z,3.60
2018-11-05T08:00:18.314Z,4.70
2018-11-05T08:02:47.776Z,5.13
2018-11-05T08:05:17.588Z,4.83
2018-11-05T08:07:46.591Z,5.67
2018-11-05T08:10:15.383Z,5.27
2018-11-05T08:12:44.152Z,5.73
2018-11-05T08:15:22.054Z,4.13
2018-11-05T08:17:51.639Z,4.80
2018-11-05T08:20:20.303Z,7.83
2018-11-05T08:22:49.303Z,6.20
2018-11-05T08:25:18.022Z,7.27
2018-11-05T08:27:46.675Z,5.43
2018-11-05T08:30:21.229Z,6.23
2018-11-05T08:32:49.754Z,8.17
2018-11-05T08:35:18.473Z,8.00
2018-11-05T08:37:47.556Z,7.97
2018-11-05T08:40:18.241Z,7.27
2018-11-05T08:42:47.843Z,6.53
2018-11-05T08:45:17.804Z,5.70
2018-11-05T08:47:46.859Z,5.43
2018-11-05T08:50:16.840Z,5.43
2018-11-05T08:52:45.741Z,7.10
2018-11-05T08:55:16.171Z,5.03
2018-11-05T08:57:44.958Z,6.77
2018-11-05T09:00:20.947Z,8.87
2018-11-05T09:02:50.066Z,7.63
2018-11-05T09:05:19.161Z,7.17
2018-11-05T09:07:48.768Z,9.53
2018-11-05T09:10:18.190Z,8.23
2018-11-05T09:12:47.080Z,8.20
2018-11-05T09:15:17.150Z,8.03
2018-11-05T09:17:46.322Z,7.73
2018-11-05T09:20:16.168Z,7.10
2018-11-05T09:22:45.225Z,7.10
2018-11-05T09:25:14.733Z,9.83
2018-11-05T09:27:43.883Z,10.23
2018-11-05T09:30:14.964Z,9.67
2018-11-05T09:32:50.416Z,8.80
2018-11-05T09:35:19.308Z,8.47
2018-11-05T09:37:48.089Z,10.80
2018-11-05T09:40:19.645Z,10.43
2018-11-05T09:42:49.019Z,9.03
2018-11-05T09:45:20.043Z,6.53
2018-11-05T09:47:48.975Z,7.13
2018-11-05T09:50:18.479Z,6.70
2018-11-05T09:52:47.429Z,7.97
2018-11-05T09:55:16.444Z,10.40
2018-11-05T09:57:45.274Z,6.90
2018-11-05T10:00:18.192Z,9.03
2018-11-05T10:02:52.333Z,9.53
2018-11-05T10:05:21.451Z,9.17
2018-11-05T10:07:50.169Z,10.73
2018-11-05T10:10:19.011Z,7.50
2018-11-05T10:12:47.809Z,9.10
2018-11-05T10:15:17.567Z,8.90
2018-11-05T10:17:46.411Z,6.43
2018-11-05T10:20:18.051Z,8.17
2018-11-05T10:22:47.253Z,7.37
2018-11-05T10:25:16.457Z,12.60
2018-11-05T10:27:45.698Z,8.03
2018-11-05T10:30:16.900Z,9.50
2018-11-05T10:32:48.597Z,12.50
2018-11-05T10:35:17.933Z,10.77
2018-11-05T10:37:46.662Z,11.37
2018-11-05T10:40:17.400Z,15.60
2018-11-05T10:42:46.838Z,11.27
2018-11-05T10:45:16.795Z,10.33
2018-11-05T10:47:46.085Z,10.13
2018-11-05T10:50:16.124Z,11.23
2018-11-05T10:52:46.333Z,9.27
2018-11-05T10:55:15.132Z,7.97
2018-11-05T10:57:44.122Z,9.10
2018-11-05T11:00:20.383Z,8.90
2018-11-05T11:02:54.711Z,12.20
2018-11-05T11:05:24.111Z,7.63
2018-11-05T11:07:53.923Z,7.10
2018-11-05T11:10:23.100Z,7.57
2018-11-05T11:12:52.435Z,5.50
2018-11-05T11:15:21.693Z,5.63
2018-11-05T11:17:50.533Z,7.67
2018-11-05T11:20:19.247Z,7.07
2018-11-05T11:22:48.169Z,7.95
2018-11-05T11:25:16.860Z,7.93
2018-11-05T11:27:52.416Z,6.23
2018-11-05T11:30:21.289Z,4.60
2018-11-05T11:32:50.838Z,4.93
2018-11-05T11:35:19.645Z,5.37
2018-11-05T11:37:48.508Z,6.47
2018-11-05T11:40:18.689Z,3.47
2018-11-05T11:42:48.129Z,4.87
2018-11-05T11:45:18.182Z,3.33
2018-11-05T11:47:46.997Z,3.40
2018-11-05T11:50:16.633Z,4.20
2018-11-05T11:52:45.727Z,5.20
2018-11-05T11:55:15.947Z,2.70
2018-11-05T11:57:44.830Z,3.57
2018-11-05T12:00:16.057Z,3.63
2018-11-05T12:02:45.167Z,4.23
2018-11-05T12:05:14.581Z,4.37
2018-11-05T12:07:43.638Z,3.30
2018-11-05T12:10:16.127Z,4.00
2018-11-05T12:12:45.315Z,6.40
2018-11-05T12:15:15.048Z,6.03
2018-11-05T12:17:45.043Z,5.37
2018-11-05T12:20:16.230Z,5.97
2018-11-05T12:22:45.483Z,4.93
2018-11-05T12:25:14.464Z,4.50
2018-11-05T12:27:43.272Z,3.97
2018-11-05T12:30:17.501Z,4.63
2018-11-05T12:32:47.397Z,5.30
2018-11-05T12:35:16.257Z,5.80
2018-11-05T12:37:46.188Z,4.03
2018-11-05T12:40:16.113Z,6.20
2018-11-05T12:42:46.082Z,4.53
2018-11-05T12:45:15.122Z,6.87
2018-11-05T12:47:44.291Z,5.27
2018-11-05T12:50:16.588Z,11.03
2018-11-05T12:52:46.120Z,8.73
2018-11-05T12:55:14.869Z,8.27
2018-11-05T12:57:43.670Z,9.57
2018-11-05T13:00:18.403Z,10.30
2018-11-05T13:02:55.278Z,9.00
2018-11-05T13:05:24.963Z,8.63
2018-11-05T13:07:53.830Z,13.53
2018-11-05T13:10:23.002Z,14.67
2018-11-05T13:12:51.709Z,9.47
2018-11-05T13:15:20.937Z,7.60
2018-11-05T13:17:49.725Z,10.17
2018-11-05T13:20:19.945Z,12.07
2018-11-05T13:22:48.830Z,15.97
2018-11-05T13:25:17.612Z,12.07
2018-11-05T13:27:47.685Z,17.37
2018-11-05T13:30:16.697Z,11.37
2018-11-05T13:32:45.820Z,11.23
2018-11-05T13:35:15.962Z,14.00
2018-11-05T13:37:45.117Z,13.13
2018-11-05T13:40:15.280Z,13.73
2018-11-05T13:42:44.535Z,15.67
2018-11-05T13:45:14.004Z,14.33
2018-11-05T13:47:43.479Z,15.43
2018-11-05T13:50:12.695Z,13.73
2018-11-05T13:52:41.707Z,14.43
2018-11-05T13:55:13.373Z,15.03
2018-11-05T13:57:43.539Z,17.70
2018-11-05T14:00:14.283Z,16.57
2018-11-05T14:02:43.074Z,15.07
2018-11-05T14:05:12.332Z,15.80
2018-11-05T14:07:41.292Z,13.50
2018-11-05T14:10:16.608Z,9.40
2018-11-05T14:12:46.231Z,11.87
2018-11-05T14:15:15.035Z,9.13
2018-11-05T14:17:44.387Z,7.27
2018-11-05T14:20:14.069Z,9.10
2018-11-05T14:22:43.174Z,7.33
2018-11-05T14:25:13.281Z,5.30
2018-11-05T14:27:43.259Z,9.27
2018-11-05T14:30:12.639Z,7.20
2018-11-05T14:32:42.607Z,5.83
2018-11-05T14:35:11.399Z,6.43
2018-11-05T14:37:40.231Z,10.13
2018-11-05T14:40:10.652Z,7.83
2018-11-05T14:42:39.523Z,8.00
2018-11-05T14:45:11.021Z,7.67
2018-11-05T14:47:40.648Z,7.00
2018-11-05T14:50:11.316Z,5.40
2018-11-05T14:52:40.719Z,6.30
2018-11-05T14:55:12.117Z,8.23
2018-11-05T14:57:41.103Z,4.43
2018-11-05T15:00:13.373Z,7.53
2018-11-05T15:02:42.819Z,9.70
2018-11-05T15:05:12.607Z,9.73
2018-11-05T15:07:42.788Z,10.00
2018-11-05T15:10:13.909Z,8.83
2018-11-05T15:12:43.042Z,8.23
2018-11-05T15:15:12.401Z,5.90
2018-11-05T15:17:41.756Z,6.27
2018-11-05T15:20:12.590Z,6.63
2018-11-05T15:22:41.415Z,10.20
2018-11-05T15:25:10.637Z,5.63
2018-11-05T15:27:39.928Z,8.60
2018-11-05T15:30:13.482Z,7.13
2018-11-05T15:32:46.653Z,8.77
2018-11-05T15:35:15.747Z,7.57
2018-11-05T15:37:44.919Z,7.53
2018-11-05T15:40:17.208Z,7.30
2018-11-05T15:42:46.157Z,9.30
2018-11-05T15:45:16.203Z,11.83
2018-11-05T15:47:44.963Z,9.73
2018-11-05T15:50:15.916Z,9.90
2018-11-05T15:52:45.299Z,8.47
2018-11-05T15:55:13.875Z,11.20
2018-11-05T15:57:42.915Z,7.83
2018-11-05T16:00:16.792Z,12.70
2018-11-05T16:02:47.625Z,8.50
2018-11-05T16:05:16.482Z,11.43
2018-11-05T16:07:45.747Z,9.37
2018-11-05T16:10:14.643Z,10.90
2018-11-05T16:12:43.420Z,12.77
2018-11-05T16:15:12.771Z,11.83
2018-11-05T16:17:41.356Z,14.43
2018-11-05T16:20:12.669Z,14.37
2018-11-05T16:22:41.412Z,17.17
2018-11-05T16:25:10.095Z,18.37
2018-11-05T16:27:38.864Z,19.37
2018-11-05T16:30:09.915Z,16.27
2018-11-05T16:32:38.689Z,21.40
2018-11-05T16:35:08.954Z,18.23
2018-11-05T16:37:37.660Z,15.77
2018-11-05T16:40:08.459Z,16.47
2018-11-05T16:42:37.337Z,17.30
2018-11-05T16:45:06.675Z,17.90
2018-11-05T16:47:35.688Z,16.40
2018-11-05T16:50:05.653Z,18.27
2018-11-05T16:52:34.359Z,18.17
2018-11-05T16:55:03.139Z,15.17
2018-11-05T16:57:31.876Z,19.53
2018-11-05T17:00:00.592Z,17.03
2018-11-05T17:02:29.579Z,18.50
2018-11-05T17:04:58.080Z,18.27
2018-11-05T17:07:26.919Z,17.00
2018-11-05T17:09:55.563Z,19.87
2018-11-05T17:12:24.353Z,20.73
2018-11-05T17:14:53.128Z,16.77
2018-11-05T17:17:21.947Z,15.40
2018-11-05T17:19:50.557Z,16.60
2018-11-05T17:22:20.321Z,15.47
2018-11-05T17:24:49.117Z,15.70
2018-11-05T17:27:17.828Z,16.23
2018-11-05T17:29:46.558Z,18.63
2018-11-05T17:32:15.475Z,14.40
2018-11-05T17:34:44.257Z,23.50
2018-11-05T17:37:12.967Z,17.43
2018-11-05T17:39:41.693Z,19.67
2018-11-05T17:42:10.488Z,21.77
2018-11-05T17:44:39.159Z,26.60
2018-11-05T17:47:08.128Z,23.83
2018-11-05T17:49:36.879Z,24.53
2018-11-05T17:52:05.510Z,18.40
2018-11-05T17:54:34.235Z,18.17
2018-11-05T17:57:02.939Z,16.47
2018-11-05T17:59:31.573Z,15.87
2018-11-05T18:02:00.323Z,17.43
2018-11-05T18:04:29.163Z,15.47
2018-11-05T18:06:57.798Z,18.10
2018-11-05T18:09:26.604Z,21.00
2018-11-05T18:11:55.236Z,15.37
2018-11-05T18:14:24.042Z,14.03
2018-11-05T18:16:52.734Z,16.37
2018-11-05T18:19:21.223Z,17.50
2018-11-05T18:21:50.044Z,17.00
2018-11-05T18:24:18.629Z,17.57
2018-11-05T18:26:47.480Z,16.77
2018-11-05T18:29:16.204Z,16.73
2018-11-05T18:31:44.886Z,17.80
2018-11-05T18:34:13.759Z,18.47
2018-11-05T18:36:42.482Z,18.87
2018-11-05T18:39:11.045Z,16.57
2018-11-05T18:41:40.093Z,19.30
2018-11-05T18:44:08.827Z,20.27
2018-11-05T18:46:37.992Z,24.87
2018-11-05T18:49:06.861Z,20.03
2018-11-05T18:51:35.784Z,22.90
2018-11-05T18:54:04.739Z,23.67
2018-11-05T18:56:33.375Z,21.77
2018-11-05T18:59:02.135Z,20.80
2018-11-05T19:01:31.092Z,18.63
2018-11-05T19:03:59.923Z,23.53
2018-11-05T19:06:28.708Z,20.40
2018-11-05T19:08:57.392Z,28.27
2018-11-05T19:11:27.184Z,26.73
2018-11-05T19:13:56.048Z,46.20
2018-11-05T19:16:25.020Z,62.70
2018-11-05T19:18:53.598Z,128.13
2018-11-05T19:21:22.336Z,138.70
2018-11-05T19:23:51.313Z,118.10
2018-11-05T19:26:19.845Z,89.23
2018-11-05T19:28:48.675Z,66.43
2018-11-05T19:31:17.361Z,58.63
2018-11-05T19:33:46.294Z,52.93
2018-11-05T19:36:15.213Z,51.50
2018-11-05T19:38:44.015Z,50.67
2018-11-05T19:41:12.590Z,49.83
2018-11-05T19:43:41.479Z,49.10
2018-11-05T19:46:10.112Z,49.10
2018-11-05T19:48:38.759Z,48.77
2018-11-05T19:51:07.584Z,38.20
2018-11-05T19:53:36.480Z,30.77
2018-11-05T19:56:05.930Z,26.10
2018-11-05T19:58:34.550Z,37.27
2018-11-05T20:01:03.319Z,36.43
2018-11-05T20:03:32.151Z,28.20
2018-11-05T20:06:00.917Z,27.37
2018-11-05T20:08:29.582Z,27.00
2018-11-05T20:10:58.336Z,38.57
2018-11-05T20:13:27.018Z,24.93
2018-11-05T20:15:55.943Z,31.17
2018-11-05T20:18:24.812Z,29.90
2018-11-05T20:20:53.627Z,28.27
2018-11-05T20:23:22.321Z,26.10
2018-11-05T20:25:51.092Z,28.17
2018-11-05T20:28:19.973Z,26.87
2018-11-05T20:30:48.750Z,29.17
2018-11-05T20:33:17.560Z,27.17
2018-11-05T20:35:46.252Z,25.23
2018-11-05T20:38:15.032Z,46.77
2018-11-05T20:40:43.750Z,28.80
2018-11-05T20:43:12.548Z,28.87
2018-11-05T20:45:41.393Z,21.70
2018-11-05T20:48:10.284Z,25.67
2018-11-05T20:50:39.074Z,21.40
2018-11-05T20:53:07.835Z,23.07
2018-11-05T20:55:36.845Z,26.40
2018-11-05T20:58:05.976Z,25.93
2018-11-05T21:00:34.685Z,30.23
2018-11-05T21:03:03.550Z,26.13
2018-11-05T21:05:32.286Z,29.53
2018-11-05T21:08:00.945Z,28.70
2018-11-05T21:10:29.850Z,29.40
2018-11-05T21:12:58.472Z,31.00
2018-11-05T21:15:27.229Z,33.20
2018-11-05T21:17:56.035Z,27.77
2018-11-05T21:20:24.839Z,35.30
2018-11-05T21:22:53.751Z,31.33
2018-11-05T21:25:22.300Z,32.07
2018-11-05T21:27:51.036Z,27.13
2018-11-05T21:30:20.960Z,35.30
2018-11-05T21:32:49.755Z,31.90
2018-11-05T21:35:19.638Z,35.07
2018-11-05T21:37:49.016Z,37.20
2018-11-05T21:40:19.200Z,34.60
2018-11-05T21:42:48.582Z,36.83
2018-11-05T21:45:18.063Z,34.43
2018-11-05T21:47:47.374Z,36.00
2018-11-05T21:50:18.003Z,38.43
2018-11-05T21:52:47.498Z,34.97
2018-11-05T21:55:16.703Z,35.37
2018-11-05T21:57:48.013Z,30.80
2018-11-05T22:00:21.627Z,30.20
2018-11-05T22:02:56.568Z,32.43
2018-11-05T22:05:25.995Z,31.63
2018-11-05T22:07:55.610Z,28.83
2018-11-05T22:10:25.152Z,29.80
2018-11-05T22:12:54.552Z,37.27
2018-11-05T22:15:23.875Z,35.07
2018-11-05T22:17:52.918Z,34.57
2018-11-05T22:20:22.073Z,34.60
2018-11-05T22:22:51.305Z,30.20
2018-11-05T22:25:20.556Z,34.87
2018-11-05T22:27:49.776Z,29.20
2018-11-05T22:30:19.304Z,29.03
2018-11-05T22:32:48.277Z,28.30
2018-11-05T22:35:17.370Z,32.23
2018-11-05T22:37:46.674Z,31.30
2018-11-05T22:40:16.156Z,26.87
2018-11-05T22:42:45.648Z,27.53
2018-11-05T22:45:15.399Z,29.13
2018-11-05T22:47:45.444Z,27.77
2018-11-05T22:50:14.789Z,26.97
2018-11-05T22:52:44.832Z,28.87
2018-11-05T22:55:14.405Z,27.30
2018-11-05T22:57:44.213Z,27.43
2018-11-05T23:00:20.223Z,23.17
2018-11-05T23:02:54.569Z,25.33
2018-11-05T23:05:24.307Z,26.80
2018-11-05T23:07:54.770Z,30.27
2018-11-05T23:10:23.796Z,31.43
2018-11-05T23:12:53.035Z,24.90
2018-11-05T23:15:22.319Z,25.43
2018-11-05T23:17:51.803Z,24.90
2018-11-05T23:20:20.985Z,27.83
2018-11-05T23:22:49.928Z,26.70
2018-11-05T23:25:18.662Z,27.50
2018-11-05T23:27:47.349Z,27.17
2018-11-05T23:30:15.965Z,24.67
2018-11-05T23:32:44.752Z,32.60
2018-11-05T23:35:13.361Z,29.83
2018-11-05T23:37:42.353Z,30.27
2018-11-05T23:40:11.234Z,29.10
2018-11-05T23:42:40.320Z,27.73
2018-11-05T23:45:13.840Z,26.17
2018-11-05T23:47:42.616Z,28.80
2018-11-05T23:50:11.795Z,29.27
2018-11-05T23:52:40.672Z,26.07
2018-11-05T23:55:10.211Z,28.90
2018-11-05T23:57:38.801Z,27.33
